sensor_id;sensor_type;location;lat;lon;timestamp;P1;durP1;ratioP1;P2;durP2;ratioP2
57828;SDS011;43657;52.698;6.314;2022-12-18T00:01:39;67.20;;;22.70;;
57828;SDS011;43657;52.698;6.314;2022-12-18T00:04:04;60.08;;;23.58;;
57828;SDS011;43657;52.698;6.314;2022-12-18T00:06:33;57.72;;;22.33;;
57828;SDS011;43657;52.698;6.314;2022-12-18T00:09:00;64.97;;;25.85;;
57828;SDS011;43657;52.698;6.314;2022-12-18T00:11:27;68.50;;;24.52;;
57828;SDS011;43657;52.698;6.314;2022-12-18T00:13:55;73.82;;;25.27;;
57828;SDS011;43657;52.698;6.314;2022-12-18T00:16:23;122.15;;;53.17;;
57828;SDS011;43657;52.698;6.314;2022-12-18T00:18:50;79.45;;;27.48;;
57828;SDS011;43657;52.698;6.314;2022-12-18T00:21:18;65.60;;;25.52;;
57828;SDS011;43657;52.698;6.314;2022-12-18T00:23:45;72.68;;;27.27;;
57828;SDS011;43657;52.698;6.314;2022-12-18T00:26:13;67.10;;;25.85;;
57828;SDS011;43657;52.698;6.314;2022-12-18T00:28:41;71.35;;;25.58;;
57828;SDS011;43657;52.698;6.314;2022-12-18T00:31:08;68.50;;;25.63;;
57828;SDS011;43657;52.698;6.314;2022-12-18T00:33:36;67.68;;;26.08;;
57828;SDS011;43657;52.698;6.314;2022-12-18T00:36:06;66.32;;;27.13;;
57828;SDS011;43657;52.698;6.314;2022-12-18T00:38:34;75.15;;;28.35;;
57828;SDS011;43657;52.698;6.314;2022-12-18T00:41:00;123.53;;;55.35;;
57828;SDS011;43657;52.698;6.314;2022-12-18T00:43:36;76.43;;;28.40;;
57828;SDS011;43657;52.698;6.314;2022-12-18T00:46:03;69.05;;;27.35;;
57828;SDS011;43657;52.698;6.314;2022-12-18T00:48:29;77.47;;;28.73;;
57828;SDS011;43657;52.698;6.314;2022-12-18T00:50:55;68.10;;;27.25;;
57828;SDS011;43657;52.698;6.314;2022-12-18T00:53:24;70.93;;;28.75;;
57828;SDS011;43657;52.698;6.314;2022-12-18T00:55:49;77.45;;;27.67;;
57828;SDS011;43657;52.698;6.314;2022-12-18T00:58:17;75.07;;;28.08;;
57828;SDS011;43657;52.698;6.314;2022-12-18T01:00:42;76.40;;;27.90;;
57828;SDS011;43657;52.698;6.314;2022-12-18T01:03:08;77.65;;;28.63;;
57828;SDS011;43657;52.698;6.314;2022-12-18T01:05:38;78.65;;;30.00;;
57828;SDS011;43657;52.698;6.314;2022-12-18T01:08:05;79.40;;;28.65;;
57828;SDS011;43657;52.698;6.314;2022-12-18T01:10:31;75.57;;;28.00;;
57828;SDS011;43657;52.698;6.314;2022-12-18T01:12:56;72.43;;;27.83;;
57828;SDS011;43657;52.698;6.314;2022-12-18T01:15:22;73.35;;;27.58;;
57828;SDS011;43657;52.698;6.314;2022-12-18T01:17:47;68.38;;;27.13;;
57828;SDS011;43657;52.698;6.314;2022-12-18T01:20:13;66.72;;;29.13;;
57828;SDS011;43657;52.698;6.314;2022-12-18T01:22:39;70.15;;;28.08;;
57828;SDS011;43657;52.698;6.314;2022-12-18T01:25:04;71.65;;;27.20;;
57828;SDS011;43657;52.698;6.314;2022-12-18T01:27:31;75.88;;;27.50;;
57828;SDS011;43657;52.698;6.314;2022-12-18T01:29:58;80.07;;;28.67;;
57828;SDS011;43657;52.698;6.314;2022-12-18T01:32:23;80.72;;;29.33;;
57828;SDS011;43657;52.698;6.314;2022-12-18T01:34:49;74.22;;;27.10;;
57828;SDS011;43657;52.698;6.314;2022-12-18T01:37:15;62.83;;;26.85;;
57828;SDS011;43657;52.698;6.314;2022-12-18T01:39:40;63.83;;;25.13;;
57828;SDS011;43657;52.698;6.314;2022-12-18T01:42:11;60.60;;;25.63;;
57828;SDS011;43657;52.698;6.314;2022-12-18T01:47:26;65.60;;;25.55;;
57828;SDS011;43657;52.698;6.314;2022-12-18T01:49:59;63.85;;;24.45;;
57828;SDS011;43657;52.698;6.314;2022-12-18T01:52:32;50.67;;;22.85;;
57828;SDS011;43657;52.698;6.314;2022-12-18T01:54:58;52.90;;;23.55;;
57828;SDS011;43657;52.698;6.314;2022-12-18T01:57:25;52.60;;;22.00;;
57828;SDS011;43657;52.698;6.314;2022-12-18T01:59:52;56.75;;;24.70;;
57828;SDS011;43657;52.698;6.314;2022-12-18T02:02:21;58.75;;;24.25;;
57828;SDS011;43657;52.698;6.314;2022-12-18T02:04:47;56.33;;;22.77;;
57828;SDS011;43657;52.698;6.314;2022-12-18T02:07:17;55.13;;;22.98;;
57828;SDS011;43657;52.698;6.314;2022-12-18T02:10:07;62.40;;;25.15;;
57828;SDS011;43657;52.698;6.314;2022-12-18T02:13:02;54.55;;;21.90;;
57828;SDS011;43657;52.698;6.314;2022-12-18T02:16:01;63.88;;;23.58;;
57828;SDS011;43657;52.698;6.314;2022-12-18T02:18:35;55.85;;;21.52;;
57828;SDS011;43657;52.698;6.314;2022-12-18T02:26:29;52.75;;;22.30;;
57828;SDS011;43657;52.698;6.314;2022-12-18T02:29:11;59.92;;;23.88;;
57828;SDS011;43657;52.698;6.314;2022-12-18T02:31:45;58.10;;;22.88;;
57828;SDS011;43657;52.698;6.314;2022-12-18T02:34:16;58.13;;;23.08;;
57828;SDS011;43657;52.698;6.314;2022-12-18T02:36:43;57.00;;;23.45;;
57828;SDS011;43657;52.698;6.314;2022-12-18T02:39:11;62.13;;;26.08;;
57828;SDS011;43657;52.698;6.314;2022-12-18T02:41:38;56.38;;;24.25;;
57828;SDS011;43657;52.698;6.314;2022-12-18T02:44:09;60.60;;;24.17;;
57828;SDS011;43657;52.698;6.314;2022-12-18T02:46:37;59.67;;;21.73;;
57828;SDS011;43657;52.698;6.314;2022-12-18T02:49:15;59.50;;;24.35;;
57828;SDS011;43657;52.698;6.314;2022-12-18T02:52:24;60.15;;;23.10;;
57828;SDS011;43657;52.698;6.314;2022-12-18T02:55:29;50.92;;;22.35;;
57828;SDS011;43657;52.698;6.314;2022-12-18T03:01:19;58.13;;;22.65;;
57828;SDS011;43657;52.698;6.314;2022-12-18T03:03:58;55.25;;;22.92;;
57828;SDS011;43657;52.698;6.314;2022-12-18T03:06:38;57.75;;;24.77;;
57828;SDS011;43657;52.698;6.314;2022-12-18T03:09:15;55.33;;;23.65;;
57828;SDS011;43657;52.698;6.314;2022-12-18T03:11:48;57.65;;;22.15;;
57828;SDS011;43657;52.698;6.314;2022-12-18T03:14:40;55.97;;;22.63;;
57828;SDS011;43657;52.698;6.314;2022-12-18T03:17:09;61.97;;;23.10;;
57828;SDS011;43657;52.698;6.314;2022-12-18T03:19:38;71.07;;;24.98;;
57828;SDS011;43657;52.698;6.314;2022-12-18T03:22:05;59.80;;;24.23;;
57828;SDS011;43657;52.698;6.314;2022-12-18T03:24:34;63.97;;;25.80;;
57828;SDS011;43657;52.698;6.314;2022-12-18T03:27:04;66.63;;;22.88;;
57828;SDS011;43657;52.698;6.314;2022-12-18T03:29:40;65.63;;;23.13;;
57828;SDS011;43657;52.698;6.314;2022-12-18T03:32:35;59.85;;;24.10;;
57828;SDS011;43657;52.698;6.314;2022-12-18T03:35:07;65.15;;;24.58;;
57828;SDS011;43657;52.698;6.314;2022-12-18T03:37:36;56.60;;;22.00;;
57828;SDS011;43657;52.698;6.314;2022-12-18T03:40:03;63.92;;;22.95;;
57828;SDS011;43657;52.698;6.314;2022-12-18T03:42:37;63.15;;;23.00;;
57828;SDS011;43657;52.698;6.314;2022-12-18T03:45:22;65.22;;;23.83;;
57828;SDS011;43657;52.698;6.314;2022-12-18T03:48:08;63.15;;;25.67;;
57828;SDS011;43657;52.698;6.314;2022-12-18T03:50:49;60.83;;;22.05;;
57828;SDS011;43657;52.698;6.314;2022-12-18T03:53:23;55.53;;;22.63;;
57828;SDS011;43657;52.698;6.314;2022-12-18T03:55:53;64.75;;;23.17;;
57828;SDS011;43657;52.698;6.314;2022-12-18T03:58:24;51.78;;;21.40;;
57828;SDS011;43657;52.698;6.314;2022-12-18T04:00:52;57.00;;;21.17;;
57828;SDS011;43657;52.698;6.314;2022-12-18T04:03:21;56.70;;;21.17;;
57828;SDS011;43657;52.698;6.314;2022-12-18T04:05:49;66.32;;;23.73;;
57828;SDS011;43657;52.698;6.314;2022-12-18T04:08:17;64.22;;;23.35;;
57828;SDS011;43657;52.698;6.314;2022-12-18T04:10:44;56.25;;;22.52;;
57828;SDS011;43657;52.698;6.314;2022-12-18T04:13:10;47.53;;;20.35;;
57828;SDS011;43657;52.698;6.314;2022-12-18T04:15:36;51.22;;;21.85;;
57828;SDS011;43657;52.698;6.314;2022-12-18T04:18:03;52.78;;;20.73;;
57828;SDS011;43657;52.698;6.314;2022-12-18T04:20:29;59.55;;;21.48;;
57828;SDS011;43657;52.698;6.314;2022-12-18T04:22:55;52.88;;;21.25;;
57828;SDS011;43657;52.698;6.314;2022-12-18T04:25:20;49.15;;;21.80;;
57828;SDS011;43657;52.698;6.314;2022-12-18T04:27:46;55.33;;;21.65;;
57828;SDS011;43657;52.698;6.314;2022-12-18T04:30:12;52.95;;;21.08;;
57828;SDS011;43657;52.698;6.314;2022-12-18T04:32:38;55.40;;;20.95;;
57828;SDS011;43657;52.698;6.314;2022-12-18T04:35:04;56.72;;;22.80;;
57828;SDS011;43657;52.698;6.314;2022-12-18T04:37:31;60.67;;;24.70;;
57828;SDS011;43657;52.698;6.314;2022-12-18T04:39:57;54.95;;;22.02;;
57828;SDS011;43657;52.698;6.314;2022-12-18T04:42:23;62.65;;;25.30;;
57828;SDS011;43657;52.698;6.314;2022-12-18T04:44:49;60.95;;;24.02;;
57828;SDS011;43657;52.698;6.314;2022-12-18T04:47:15;61.22;;;24.70;;
57828;SDS011;43657;52.698;6.314;2022-12-18T04:49:40;68.90;;;22.67;;
57828;SDS011;43657;52.698;6.314;2022-12-18T04:52:06;61.63;;;24.27;;
57828;SDS011;43657;52.698;6.314;2022-12-18T04:54:32;62.25;;;22.63;;
57828;SDS011;43657;52.698;6.314;2022-12-18T04:56:58;55.58;;;22.77;;
57828;SDS011;43657;52.698;6.314;2022-12-18T04:59:23;71.97;;;25.40;;
57828;SDS011;43657;52.698;6.314;2022-12-18T05:01:49;63.95;;;25.42;;
57828;SDS011;43657;52.698;6.314;2022-12-18T05:04:15;62.45;;;24.05;;
57828;SDS011;43657;52.698;6.314;2022-12-18T05:06:41;53.92;;;23.98;;
57828;SDS011;43657;52.698;6.314;2022-12-18T05:09:07;61.78;;;22.55;;
57828;SDS011;43657;52.698;6.314;2022-12-18T05:11:32;57.80;;;24.08;;
57828;SDS011;43657;52.698;6.314;2022-12-18T05:13:58;58.58;;;24.27;;
57828;SDS011;43657;52.698;6.314;2022-12-18T05:16:24;51.88;;;20.75;;
57828;SDS011;43657;52.698;6.314;2022-12-18T05:18:50;55.50;;;24.05;;
57828;SDS011;43657;52.698;6.314;2022-12-18T05:21:16;59.20;;;24.15;;
57828;SDS011;43657;52.698;6.314;2022-12-18T05:23:41;50.10;;;22.90;;
57828;SDS011;43657;52.698;6.314;2022-12-18T05:26:07;57.65;;;22.92;;
57828;SDS011;43657;52.698;6.314;2022-12-18T05:28:35;60.67;;;23.25;;
57828;SDS011;43657;52.698;6.314;2022-12-18T05:31:02;55.95;;;23.15;;
57828;SDS011;43657;52.698;6.314;2022-12-18T05:33:29;60.78;;;23.80;;
57828;SDS011;43657;52.698;6.314;2022-12-18T05:35:58;49.22;;;20.40;;
57828;SDS011;43657;52.698;6.314;2022-12-18T05:38:27;56.83;;;20.58;;
57828;SDS011;43657;52.698;6.314;2022-12-18T05:40:54;58.03;;;21.23;;
57828;SDS011;43657;52.698;6.314;2022-12-18T05:43:20;48.35;;;19.85;;
57828;SDS011;43657;52.698;6.314;2022-12-18T05:45:47;47.05;;;21.08;;
57828;SDS011;43657;52.698;6.314;2022-12-18T05:48:13;51.33;;;22.10;;
57828;SDS011;43657;52.698;6.314;2022-12-18T05:50:40;40.28;;;18.10;;
57828;SDS011;43657;52.698;6.314;2022-12-18T05:53:07;50.20;;;20.38;;
57828;SDS011;43657;52.698;6.314;2022-12-18T05:55:34;48.80;;;19.33;;
57828;SDS011;43657;52.698;6.314;2022-12-18T05:58:01;46.20;;;19.27;;
57828;SDS011;43657;52.698;6.314;2022-12-18T06:00:27;42.35;;;19.38;;
57828;SDS011;43657;52.698;6.314;2022-12-18T06:02:53;41.28;;;18.35;;
57828;SDS011;43657;52.698;6.314;2022-12-18T06:05:19;47.75;;;18.98;;
57828;SDS011;43657;52.698;6.314;2022-12-18T06:07:45;47.85;;;19.90;;
57828;SDS011;43657;52.698;6.314;2022-12-18T06:10:13;55.13;;;19.38;;
57828;SDS011;43657;52.698;6.314;2022-12-18T06:12:38;43.70;;;18.83;;
57828;SDS011;43657;52.698;6.314;2022-12-18T06:15:04;43.78;;;18.52;;
57828;SDS011;43657;52.698;6.314;2022-12-18T06:17:31;45.90;;;19.25;;
57828;SDS011;43657;52.698;6.314;2022-12-18T06:19:57;50.42;;;18.58;;
57828;SDS011;43657;52.698;6.314;2022-12-18T06:22:23;40.47;;;19.90;;
57828;SDS011;43657;52.698;6.314;2022-12-18T06:24:49;47.78;;;21.38;;
57828;SDS011;43657;52.698;6.314;2022-12-18T06:27:15;46.90;;;21.20;;
57828;SDS011;43657;52.698;6.314;2022-12-18T06:29:41;42.63;;;18.02;;
57828;SDS011;43657;52.698;6.314;2022-12-18T06:32:07;47.03;;;18.30;;
57828;SDS011;43657;52.698;6.314;2022-12-18T06:34:33;44.80;;;19.63;;
57828;SDS011;43657;52.698;6.314;2022-12-18T06:36:59;35.72;;;16.27;;
57828;SDS011;43657;52.698;6.314;2022-12-18T06:39:28;38.45;;;17.38;;
57828;SDS011;43657;52.698;6.314;2022-12-18T06:41:54;37.38;;;17.05;;
57828;SDS011;43657;52.698;6.314;2022-12-18T06:44:20;36.70;;;17.38;;
57828;SDS011;43657;52.698;6.314;2022-12-18T06:47:08;36.95;;;18.08;;
57828;SDS011;43657;52.698;6.314;2022-12-18T06:49:38;41.13;;;19.10;;
57828;SDS011;43657;52.698;6.314;2022-12-18T06:52:04;38.35;;;18.65;;
57828;SDS011;43657;52.698;6.314;2022-12-18T06:54:33;33.40;;;16.85;;
57828;SDS011;43657;52.698;6.314;2022-12-18T06:57:01;33.15;;;15.48;;
57828;SDS011;43657;52.698;6.314;2022-12-18T06:59:27;35.28;;;15.80;;
57828;SDS011;43657;52.698;6.314;2022-12-18T07:01:53;35.95;;;18.77;;
57828;SDS011;43657;52.698;6.314;2022-12-18T07:04:24;34.92;;;14.70;;
57828;SDS011;43657;52.698;6.314;2022-12-18T07:06:56;36.95;;;16.73;;
57828;SDS011;43657;52.698;6.314;2022-12-18T07:09:25;38.70;;;16.77;;
57828;SDS011;43657;52.698;6.314;2022-12-18T07:11:51;42.25;;;18.98;;
57828;SDS011;43657;52.698;6.314;2022-12-18T07:14:17;37.22;;;18.15;;
57828;SDS011;43657;52.698;6.314;2022-12-18T07:16:45;42.13;;;19.52;;
57828;SDS011;43657;52.698;6.314;2022-12-18T07:19:26;41.33;;;18.00;;
57828;SDS011;43657;52.698;6.314;2022-12-18T07:21:52;37.30;;;17.98;;
57828;SDS011;43657;52.698;6.314;2022-12-18T07:24:18;43.25;;;16.98;;
57828;SDS011;43657;52.698;6.314;2022-12-18T07:27:08;36.63;;;18.42;;
57828;SDS011;43657;52.698;6.314;2022-12-18T07:30:06;39.75;;;17.90;;
57828;SDS011;43657;52.698;6.314;2022-12-18T07:32:35;32.38;;;16.42;;
57828;SDS011;43657;52.698;6.314;2022-12-18T07:35:00;31.67;;;16.02;;
57828;SDS011;43657;52.698;6.314;2022-12-18T07:37:26;35.47;;;16.67;;
57828;SDS011;43657;52.698;6.314;2022-12-18T07:39:54;37.58;;;17.50;;
57828;SDS011;43657;52.698;6.314;2022-12-18T07:42:23;38.10;;;18.13;;
57828;SDS011;43657;52.698;6.314;2022-12-18T07:45:01;34.88;;;16.02;;
57828;SDS011;43657;52.698;6.314;2022-12-18T07:47:28;33.53;;;17.52;;
57828;SDS011;43657;52.698;6.314;2022-12-18T07:49:54;40.20;;;18.17;;
57828;SDS011;43657;52.698;6.314;2022-12-18T07:52:20;42.75;;;19.70;;
57828;SDS011;43657;52.698;6.314;2022-12-18T07:54:49;36.28;;;18.63;;
57828;SDS011;43657;52.698;6.314;2022-12-18T07:57:17;34.75;;;16.80;;
57828;SDS011;43657;52.698;6.314;2022-12-18T08:02:19;40.40;;;19.40;;
57828;SDS011;43657;52.698;6.314;2022-12-18T08:04:48;31.75;;;17.63;;
57828;SDS011;43657;52.698;6.314;2022-12-18T08:07:13;38.33;;;17.08;;
57828;SDS011;43657;52.698;6.314;2022-12-18T08:09:42;39.42;;;17.38;;
57828;SDS011;43657;52.698;6.314;2022-12-18T08:12:08;34.72;;;18.30;;
57828;SDS011;43657;52.698;6.314;2022-12-18T08:14:33;34.78;;;17.65;;
57828;SDS011;43657;52.698;6.314;2022-12-18T08:16:59;35.78;;;17.65;;
57828;SDS011;43657;52.698;6.314;2022-12-18T08:19:46;40.30;;;20.83;;
57828;SDS011;43657;52.698;6.314;2022-12-18T08:22:15;33.83;;;18.27;;
57828;SDS011;43657;52.698;6.314;2022-12-18T08:24:43;31.08;;;15.82;;
57828;SDS011;43657;52.698;6.314;2022-12-18T08:27:12;29.35;;;16.85;;
57828;SDS011;43657;52.698;6.314;2022-12-18T08:29:38;34.30;;;16.08;;
57828;SDS011;43657;52.698;6.314;2022-12-18T08:32:29;35.75;;;17.48;;
57828;SDS011;43657;52.698;6.314;2022-12-18T08:35:09;33.83;;;19.20;;
57828;SDS011;43657;52.698;6.314;2022-12-18T08:42:18;45.70;;;28.35;;
57828;SDS011;43657;52.698;6.314;2022-12-18T08:45:20;27.92;;;18.00;;
57828;SDS011;43657;52.698;6.314;2022-12-18T08:48:13;28.15;;;18.05;;
57828;SDS011;43657;52.698;6.314;2022-12-18T08:51:40;27.58;;;16.27;;
57828;SDS011;43657;52.698;6.314;2022-12-18T08:54:16;42.25;;;16.45;;
57828;SDS011;43657;52.698;6.314;2022-12-18T08:56:44;28.75;;;16.17;;
57828;SDS011;43657;52.698;6.314;2022-12-18T08:59:20;28.13;;;17.15;;
57828;SDS011;43657;52.698;6.314;2022-12-18T09:04:20;25.73;;;15.48;;
57828;SDS011;43657;52.698;6.314;2022-12-18T09:06:46;28.08;;;14.55;;
57828;SDS011;43657;52.698;6.314;2022-12-18T09:09:12;24.13;;;13.70;;
57828;SDS011;43657;52.698;6.314;2022-12-18T09:13:48;26.17;;;15.77;;
57828;SDS011;43657;52.698;6.314;2022-12-18T09:16:14;35.90;;;18.50;;
57828;SDS011;43657;52.698;6.314;2022-12-18T09:18:40;38.40;;;22.48;;
57828;SDS011;43657;52.698;6.314;2022-12-18T09:21:10;32.17;;;16.92;;
57828;SDS011;43657;52.698;6.314;2022-12-18T09:23:37;25.40;;;16.07;;
57828;SDS011;43657;52.698;6.314;2022-12-18T09:26:03;29.95;;;17.23;;
57828;SDS011;43657;52.698;6.314;2022-12-18T09:28:29;23.23;;;15.18;;
57828;SDS011;43657;52.698;6.314;2022-12-18T09:30:54;27.48;;;15.30;;
57828;SDS011;43657;52.698;6.314;2022-12-18T09:33:20;27.73;;;15.13;;
57828;SDS011;43657;52.698;6.314;2022-12-18T09:35:45;25.67;;;14.60;;
57828;SDS011;43657;52.698;6.314;2022-12-18T09:38:23;23.70;;;14.77;;
57828;SDS011;43657;52.698;6.314;2022-12-18T09:40:50;21.27;;;13.32;;
57828;SDS011;43657;52.698;6.314;2022-12-18T09:43:31;25.48;;;14.35;;
57828;SDS011;43657;52.698;6.314;2022-12-18T09:46:10;26.45;;;14.85;;
57828;SDS011;43657;52.698;6.314;2022-12-18T09:48:41;28.50;;;16.33;;
57828;SDS011;43657;52.698;6.314;2022-12-18T09:51:27;24.40;;;13.75;;
57828;SDS011;43657;52.698;6.314;2022-12-18T09:57:34;22.42;;;12.68;;
57828;SDS011;43657;52.698;6.314;2022-12-18T10:02:35;19.52;;;11.35;;
57828;SDS011;43657;52.698;6.314;2022-12-18T10:05:13;21.45;;;11.70;;
57828;SDS011;43657;52.698;6.314;2022-12-18T10:07:49;19.45;;;11.75;;
57828;SDS011;43657;52.698;6.314;2022-12-18T10:16:22;20.17;;;12.40;;
57828;SDS011;43657;52.698;6.314;2022-12-18T10:22:43;18.63;;;10.63;;
57828;SDS011;43657;52.698;6.314;2022-12-18T10:28:49;16.92;;;10.10;;
57828;SDS011;43657;52.698;6.314;2022-12-18T10:31:21;20.80;;;11.05;;
57828;SDS011;43657;52.698;6.314;2022-12-18T10:33:48;17.58;;;10.68;;
57828;SDS011;43657;52.698;6.314;2022-12-18T10:36:14;21.67;;;12.02;;
57828;SDS011;43657;52.698;6.314;2022-12-18T10:38:40;20.52;;;16.40;;
57828;SDS011;43657;52.698;6.314;2022-12-18T10:41:08;18.42;;;10.30;;
57828;SDS011;43657;52.698;6.314;2022-12-18T10:44:16;21.13;;;11.45;;
57828;SDS011;43657;52.698;6.314;2022-12-18T10:46:50;16.45;;;11.23;;
57828;SDS011;43657;52.698;6.314;2022-12-18T10:54:57;15.48;;;9.73;;
57828;SDS011;43657;52.698;6.314;2022-12-18T10:57:39;17.80;;;15.75;;
57828;SDS011;43657;52.698;6.314;2022-12-18T11:00:28;24.95;;;11.57;;
57828;SDS011;43657;52.698;6.314;2022-12-18T11:02:54;17.02;;;9.23;;
57828;SDS011;43657;52.698;6.314;2022-12-18T11:08:27;18.77;;;11.52;;
57828;SDS011;43657;52.698;6.314;2022-12-18T11:10:53;23.05;;;18.48;;
57828;SDS011;43657;52.698;6.314;2022-12-18T11:13:19;16.10;;;9.95;;
57828;SDS011;43657;52.698;6.314;2022-12-18T11:15:47;14.88;;;9.40;;
57828;SDS011;43657;52.698;6.314;2022-12-18T11:18:25;19.35;;;11.23;;
57828;SDS011;43657;52.698;6.314;2022-12-18T11:20:57;21.35;;;18.20;;
57828;SDS011;43657;52.698;6.314;2022-12-18T11:23:25;23.17;;;18.80;;
57828;SDS011;43657;52.698;6.314;2022-12-18T11:25:53;14.73;;;8.65;;
57828;SDS011;43657;52.698;6.314;2022-12-18T11:28:35;17.02;;;14.68;;
57828;SDS011;43657;52.698;6.314;2022-12-18T11:33:39;13.40;;;8.68;;
57828;SDS011;43657;52.698;6.314;2022-12-18T11:36:08;15.77;;;12.73;;
57828;SDS011;43657;52.698;6.314;2022-12-18T11:38:36;17.50;;;14.63;;
57828;SDS011;43657;52.698;6.314;2022-12-18T11:44:26;13.95;;;8.10;;
57828;SDS011;43657;52.698;6.314;2022-12-18T11:47:00;16.30;;;14.43;;
57828;SDS011;43657;52.698;6.314;2022-12-18T11:49:35;19.70;;;11.10;;
57828;SDS011;43657;52.698;6.314;2022-12-18T11:52:18;17.48;;;9.57;;
57828;SDS011;43657;52.698;6.314;2022-12-18T11:55:11;14.82;;;12.93;;
57828;SDS011;43657;52.698;6.314;2022-12-18T12:00:30;14.90;;;11.15;;
57828;SDS011;43657;52.698;6.314;2022-12-18T12:11:17;14.80;;;11.77;;
57828;SDS011;43657;52.698;6.314;2022-12-18T12:17:14;11.90;;;7.53;;
57828;SDS011;43657;52.698;6.314;2022-12-18T12:22:58;12.07;;;7.20;;
57828;SDS011;43657;52.698;6.314;2022-12-18T12:25:49;15.02;;;7.45;;
57828;SDS011;43657;52.698;6.314;2022-12-18T12:33:51;13.20;;;11.07;;
57828;SDS011;43657;52.698;6.314;2022-12-18T12:36:45;12.35;;;10.35;;
57828;SDS011;43657;52.698;6.314;2022-12-18T12:39:18;11.20;;;10.00;;
57828;SDS011;43657;52.698;6.314;2022-12-18T12:41:48;14.77;;;9.80;;
57828;SDS011;43657;52.698;6.314;2022-12-18T12:44:47;10.93;;;9.25;;
57828;SDS011;43657;52.698;6.314;2022-12-18T12:47:31;11.07;;;9.02;;
57828;SDS011;43657;52.698;6.314;2022-12-18T12:50:03;10.50;;;8.30;;
57828;SDS011;43657;52.698;6.314;2022-12-18T12:52:46;99.10;;;15.68;;
57828;SDS011;43657;52.698;6.314;2022-12-18T12:55:17;9.25;;;8.25;;
57828;SDS011;43657;52.698;6.314;2022-12-18T12:57:51;11.18;;;8.13;;
57828;SDS011;43657;52.698;6.314;2022-12-18T13:00:24;11.93;;;8.63;;
57828;SDS011;43657;52.698;6.314;2022-12-18T13:05:24;10.57;;;8.20;;
57828;SDS011;43657;52.698;6.314;2022-12-18T13:10:41;10.30;;;8.77;;
57828;SDS011;43657;52.698;6.314;2022-12-18T13:13:10;9.00;;;7.65;;
57828;SDS011;43657;52.698;6.314;2022-12-18T13:18:33;28.00;;;19.08;;
57828;SDS011;43657;52.698;6.314;2022-12-18T13:21:07;15.43;;;13.77;;
57828;SDS011;43657;52.698;6.314;2022-12-18T13:27:57;11.02;;;9.02;;
57828;SDS011;43657;52.698;6.314;2022-12-18T13:41:10;10.65;;;9.18;;
57828;SDS011;43657;52.698;6.314;2022-12-18T13:46:53;11.68;;;9.00;;
57828;SDS011;43657;52.698;6.314;2022-12-18T13:49:36;9.18;;;8.18;;
57828;SDS011;43657;52.698;6.314;2022-12-18T13:52:17;10.90;;;8.30;;
57828;SDS011;43657;52.698;6.314;2022-12-18T13:54:50;7.68;;;5.18;;
57828;SDS011;43657;52.698;6.314;2022-12-18T13:57:34;12.13;;;9.43;;
57828;SDS011;43657;52.698;6.314;2022-12-18T14:02:32;8.27;;;5.93;;
57828;SDS011;43657;52.698;6.314;2022-12-18T14:04:59;11.20;;;6.75;;
57828;SDS011;43657;52.698;6.314;2022-12-18T14:07:30;12.25;;;10.13;;
57828;SDS011;43657;52.698;6.314;2022-12-18T14:10:00;11.82;;;9.73;;
57828;SDS011;43657;52.698;6.314;2022-12-18T14:12:28;10.98;;;6.47;;
57828;SDS011;43657;52.698;6.314;2022-12-18T14:17:58;29.52;;;9.85;;
57828;SDS011;43657;52.698;6.314;2022-12-18T14:20:59;10.77;;;8.93;;
57828;SDS011;43657;52.698;6.314;2022-12-18T14:26:19;10.40;;;8.10;;
57828;SDS011;43657;52.698;6.314;2022-12-18T14:28:56;11.02;;;8.55;;
57828;SDS011;43657;52.698;6.314;2022-12-18T14:31:35;9.70;;;7.45;;
57828;SDS011;43657;52.698;6.314;2022-12-18T14:34:09;9.43;;;7.95;;
57828;SDS011;43657;52.698;6.314;2022-12-18T14:36:53;7.50;;;5.45;;
57828;SDS011;43657;52.698;6.314;2022-12-18T14:39:20;7.28;;;4.85;;
57828;SDS011;43657;52.698;6.314;2022-12-18T14:41:56;11.88;;;5.32;;
57828;SDS011;43657;52.698;6.314;2022-12-18T14:44:41;9.70;;;8.38;;
57828;SDS011;43657;52.698;6.314;2022-12-18T14:47:12;10.38;;;8.88;;
57828;SDS011;43657;52.698;6.314;2022-12-18T14:49:40;9.57;;;6.20;;
57828;SDS011;43657;52.698;6.314;2022-12-18T14:52:27;10.18;;;5.93;;
57828;SDS011;43657;52.698;6.314;2022-12-18T14:54:56;11.30;;;9.13;;
57828;SDS011;43657;52.698;6.314;2022-12-18T15:02:29;13.43;;;11.45;;
57828;SDS011;43657;52.698;6.314;2022-12-18T15:10:00;8.43;;;6.22;;
57828;SDS011;43657;52.698;6.314;2022-12-18T15:20:42;14.25;;;12.75;;
57828;SDS011;43657;52.698;6.314;2022-12-18T15:23:25;12.73;;;10.93;;
57828;SDS011;43657;52.698;6.314;2022-12-18T15:25:58;12.77;;;11.48;;
57828;SDS011;43657;52.698;6.314;2022-12-18T15:33:37;12.18;;;9.85;;
57828;SDS011;43657;52.698;6.314;2022-12-18T15:36:07;12.00;;;9.68;;
57828;SDS011;43657;52.698;6.314;2022-12-18T15:38:35;10.98;;;8.90;;
57828;SDS011;43657;52.698;6.314;2022-12-18T15:41:00;9.77;;;6.15;;
57828;SDS011;43657;52.698;6.314;2022-12-18T15:43:27;12.05;;;9.40;;
57828;SDS011;43657;52.698;6.314;2022-12-18T15:46:06;10.45;;;8.73;;
57828;SDS011;43657;52.698;6.314;2022-12-18T15:48:42;11.95;;;7.30;;
57828;SDS011;43657;52.698;6.314;2022-12-18T15:54:01;11.50;;;9.30;;
57828;SDS011;43657;52.698;6.314;2022-12-18T15:56:29;10.23;;;8.80;;
57828;SDS011;43657;52.698;6.314;2022-12-18T15:59:15;11.70;;;9.60;;
57828;SDS011;43657;52.698;6.314;2022-12-18T16:01:49;10.90;;;9.70;;
57828;SDS011;43657;52.698;6.314;2022-12-18T16:04:17;9.18;;;5.80;;
57828;SDS011;43657;52.698;6.314;2022-12-18T16:06:47;8.93;;;5.85;;
57828;SDS011;43657;52.698;6.314;2022-12-18T16:09:13;9.10;;;6.22;;
57828;SDS011;43657;52.698;6.314;2022-12-18T16:11:39;11.32;;;9.23;;
57828;SDS011;43657;52.698;6.314;2022-12-18T16:19:28;9.98;;;8.63;;
57828;SDS011;43657;52.698;6.314;2022-12-18T16:21:54;11.07;;;9.52;;
57828;SDS011;43657;52.698;6.314;2022-12-18T16:24:23;12.00;;;9.57;;
57828;SDS011;43657;52.698;6.314;2022-12-18T16:26:50;10.93;;;9.70;;
57828;SDS011;43657;52.698;6.314;2022-12-18T16:29:17;11.30;;;9.13;;
57828;SDS011;43657;52.698;6.314;2022-12-18T16:31:45;11.02;;;9.25;;
57828;SDS011;43657;52.698;6.314;2022-12-18T16:34:22;12.00;;;9.98;;
57828;SDS011;43657;52.698;6.314;2022-12-18T16:37:03;11.00;;;9.73;;
57828;SDS011;43657;52.698;6.314;2022-12-18T16:39:43;11.20;;;10.00;;
57828;SDS011;43657;52.698;6.314;2022-12-18T16:44:47;12.20;;;9.93;;
57828;SDS011;43657;52.698;6.314;2022-12-18T16:47:16;11.95;;;10.50;;
57828;SDS011;43657;52.698;6.314;2022-12-18T16:49:43;12.43;;;10.75;;
57828;SDS011;43657;52.698;6.314;2022-12-18T16:52:10;11.88;;;9.93;;
57828;SDS011;43657;52.698;6.314;2022-12-18T16:54:36;11.63;;;10.10;;
57828;SDS011;43657;52.698;6.314;2022-12-18T16:57:02;11.65;;;10.30;;
57828;SDS011;43657;52.698;6.314;2022-12-18T16:59:32;11.95;;;10.55;;
57828;SDS011;43657;52.698;6.314;2022-12-18T17:02:01;10.70;;;9.38;;
57828;SDS011;43657;52.698;6.314;2022-12-18T17:04:43;11.55;;;9.43;;
57828;SDS011;43657;52.698;6.314;2022-12-18T17:07:14;11.80;;;9.52;;
57828;SDS011;43657;52.698;6.314;2022-12-18T17:09:40;12.23;;;9.50;;
57828;SDS011;43657;52.698;6.314;2022-12-18T17:12:17;13.63;;;11.18;;
57828;SDS011;43657;52.698;6.314;2022-12-18T17:14:45;12.35;;;10.20;;
57828;SDS011;43657;52.698;6.314;2022-12-18T17:17:13;12.00;;;10.02;;
57828;SDS011;43657;52.698;6.314;2022-12-18T17:19:42;12.60;;;10.05;;